ATL weather

Hartsfield Jackson Atlanta International Airport
Atlanta, Georgia, United States

Public forecast

Using degrees Fahrenheit for public forecast. Weather courtesy of forecast.io.

METAR (pilot weather report)

Retrieved 2017/03/28 12:52 UTC (54 minutes ago):

KATL 281252Z 24008KT 10SM FEW007 FEW055 OVC095 18/17 A2999

TAF (pilot weather forecast)

Retrieved 2017/03/28 12:24 UTC (1 hour ago):

TAF KATL 281120Z 2812/2918 23005KT P6SM VCSH BKN040 TEMPO 2812/2814 -SHRA BKN012 FM281400 27010KT P6SM VCSH BKN020 FM290000 27004KT P6SM SCT050 FM290300 32004KT P6SM FEW040 SCT250 FM291400 04004KT P6SM BKN040